createdAt,value
2016-04-04T00:00:52.502Z,45.96
2016-04-04T00:01:52.489Z,46.06
2016-04-04T00:02:52.493Z,46.06
2016-04-04T00:03:52.495Z,45.96
2016-04-04T00:04:52.513Z,45.96
2016-04-04T00:05:52.515Z,45.96
2016-04-04T00:06:52.518Z,45.96
2016-04-04T00:07:52.537Z,46.06
2016-04-04T00:08:52.539Z,45.96
2016-04-04T00:09:52.542Z,45.96
2016-04-04T00:10:52.545Z,45.96
2016-04-04T00:11:52.564Z,45.96
2016-04-04T00:12:52.566Z,46.06
2016-04-04T00:13:52.584Z,45.96
2016-04-04T00:14:52.587Z,45.96
2016-04-04T00:15:52.590Z,46.06
2016-04-04T00:16:52.592Z,45.96
2016-04-04T00:17:52.594Z,46.06
2016-04-04T00:18:52.613Z,46.06
2016-04-04T00:19:52.616Z,45.96
2016-04-04T00:20:52.460Z,46.03
2016-04-04T00:21:52.619Z,45.94
2016-04-04T00:22:52.622Z,45.96
2016-04-04T00:23:52.640Z,46.06
2016-04-04T00:24:52.658Z,46.06
2016-04-04T00:25:52.645Z,46.06
2016-04-04T00:26:52.663Z,45.96
2016-04-04T00:27:52.682Z,45.96
2016-04-04T00:28:52.685Z,45.94
2016-04-04T00:29:52.687Z,45.96
2016-04-04T00:30:52.690Z,45.94
2016-04-04T00:31:52.692Z,45.94
2016-04-04T00:32:52.710Z,45.94
2016-04-04T00:33:52.729Z,45.86
2016-04-04T00:34:52.716Z,45.94
2016-04-04T00:35:52.718Z,45.94
2016-04-04T00:36:52.737Z,45.86
2016-04-04T00:37:52.739Z,45.84
2016-04-04T00:38:52.758Z,45.94
2016-04-04T00:39:52.762Z,45.94
2016-04-04T00:40:52.763Z,45.84
2016-04-04T00:41:52.782Z,45.94
2016-04-04T00:42:52.784Z,45.94
2016-04-04T00:43:52.786Z,45.94
2016-04-04T00:44:52.789Z,45.94
2016-04-04T00:45:52.809Z,45.96
2016-04-04T00:46:52.827Z,45.94
2016-04-04T00:47:52.814Z,45.94
2016-04-04T00:48:52.832Z,45.84
2016-04-04T00:49:52.819Z,45.94
2016-04-04T00:50:52.837Z,45.94
2016-04-04T00:51:52.840Z,45.94
2016-04-04T00:52:52.858Z,45.94
2016-04-04T00:53:52.861Z,45.94
2016-04-04T00:54:52.863Z,46.03
2016-04-04T00:55:52.866Z,46.03
2016-04-04T00:56:52.885Z,46.03
2016-04-04T00:57:52.919Z,46.03
2016-04-04T00:58:52.905Z,46.03
2016-04-04T00:59:52.908Z,46.03
2016-04-04T01:00:52.926Z,46.03
2016-04-04T01:01:52.898Z,45.94
2016-04-04T01:02:52.916Z,46.03
2016-04-04T01:03:52.935Z,46.03
2016-04-04T01:04:52.938Z,45.94
2016-04-04T01:05:52.940Z,46.03
2016-04-04T01:06:52.943Z,46.03
2016-04-04T01:07:52.962Z,45.94
2016-04-04T01:08:52.965Z,46.03
2016-04-04T01:09:52.967Z,46.13
2016-04-04T01:10:52.970Z,46.03
2016-04-04T01:11:52.988Z,45.94
2016-04-04T01:12:52.990Z,45.94
2016-04-04T01:13:53.009Z,46.03
2016-04-04T01:14:53.011Z,46.03
2016-04-04T01:15:53.014Z,46.03
2016-04-04T01:16:53.033Z,46.03
2016-04-04T01:17:53.019Z,46.03
2016-04-04T01:18:53.038Z,46.13
2016-04-04T01:19:53.041Z,46.13
2016-04-04T01:20:53.043Z,46.13
2016-04-04T01:21:53.061Z,45.94
2016-04-04T01:22:53.064Z,46.03
2016-04-04T01:23:53.067Z,46.03
2016-04-04T01:24:53.086Z,46.03
2016-04-04T01:25:53.088Z,46.03
2016-04-04T01:26:53.091Z,45.94
2016-04-04T01:27:53.093Z,46.03
2016-04-04T01:28:53.111Z,45.94
2016-04-04T01:29:53.113Z,45.94
2016-04-04T01:30:53.116Z,46.13
2016-04-04T01:31:53.119Z,46.03
2016-04-04T01:32:53.122Z,46.13
2016-04-04T01:33:53.141Z,46.03
2016-04-04T01:34:53.143Z,45.94
2016-04-04T01:35:53.146Z,46.03
2016-04-04T01:36:53.165Z,45.94
2016-04-04T01:37:53.168Z,45.94
2016-04-04T01:38:53.170Z,46.13
2016-04-04T01:39:53.173Z,45.94
2016-04-04T01:40:53.191Z,46.13
2016-04-04T01:41:53.193Z,46.03
2016-04-04T01:42:53.196Z,45.94
2016-04-04T01:43:53.214Z,46.03
2016-04-04T01:44:53.217Z,46.03
2016-04-04T01:45:53.220Z,46.13
2016-04-04T01:46:53.222Z,45.94
2016-04-04T01:47:53.225Z,45.94
2016-04-04T01:48:53.243Z,45.84
2016-04-04T01:49:53.246Z,45.94
2016-04-04T01:50:53.249Z,46.03
2016-04-04T01:51:53.266Z,45.94
2016-04-04T01:52:53.269Z,45.94
2016-04-04T01:53:53.288Z,45.94
2016-04-04T01:54:53.305Z,45.94
2016-04-04T01:55:53.293Z,46.13
2016-04-04T01:56:53.296Z,45.94
2016-04-04T01:57:53.299Z,45.94
2016-04-04T01:58:53.316Z,46.03
2016-04-04T01:59:53.319Z,46.13
2016-04-04T02:00:53.327Z,46.03
2016-04-04T02:01:53.330Z,46.13
2016-04-04T02:02:53.193Z,46.03
2016-04-04T02:03:53.351Z,45.94
2016-04-04T02:04:53.354Z,46.13
2016-04-04T02:05:53.372Z,46.03
2016-04-04T02:06:53.375Z,46.03
2016-04-04T02:07:53.378Z,46.13
2016-04-04T02:08:53.380Z,45.94
2016-04-04T02:09:53.383Z,45.94
2016-04-04T02:10:53.401Z,46.13
2016-04-04T02:11:53.404Z,45.94
2016-04-04T02:12:53.406Z,46.13
2016-04-04T02:13:53.425Z,45.94
2016-04-04T02:14:53.428Z,46.03
2016-04-04T02:15:53.446Z,46.03
2016-04-04T02:16:53.448Z,45.84
2016-04-04T02:17:53.451Z,45.94
2016-04-04T02:18:53.453Z,46.13
2016-04-04T02:19:53.472Z,46.03
2016-04-04T02:20:53.475Z,45.94
2016-04-04T02:21:53.478Z,46.03
2016-04-04T02:22:53.497Z,45.94
2016-04-04T02:23:53.499Z,46.13
2016-04-04T02:24:53.486Z,45.94
2016-04-04T02:25:53.504Z,45.94
2016-04-04T02:26:53.507Z,46.13
2016-04-04T02:27:53.510Z,46.13
2016-04-04T02:28:53.528Z,46.03
2016-04-04T02:29:53.530Z,46.03
2016-04-04T02:30:53.533Z,46.13
2016-04-04T02:31:53.536Z,45.94
2016-04-04T02:32:53.538Z,45.94
2016-04-04T02:33:53.604Z,46.03
2016-04-04T02:34:53.560Z,46.03
2016-04-04T02:35:53.578Z,45.94
2016-04-04T02:36:53.581Z,46.03
2016-04-04T02:37:53.584Z,46.03
2016-04-04T02:38:53.586Z,46.03
2016-04-04T02:39:53.604Z,45.94
2016-04-04T02:40:53.607Z,46.03
2016-04-04T02:41:53.609Z,45.94
2016-04-04T02:42:53.628Z,45.94
2016-04-04T02:43:53.631Z,46.03
2016-04-04T02:44:53.634Z,46.13
2016-04-04T02:45:53.636Z,46.23
2016-04-04T02:46:53.639Z,46.03
2016-04-04T02:47:53.657Z,46.13
2016-04-04T02:48:53.691Z,45.94
2016-04-04T02:49:53.709Z,46.03
2016-04-04T02:50:53.664Z,46.13
2016-04-04T02:51:53.683Z,45.94
2016-04-04T02:52:53.686Z,45.94
2016-04-04T02:53:53.688Z,45.94
2016-04-04T02:54:53.707Z,46.13
2016-04-04T02:55:53.710Z,45.94
2016-04-04T02:56:53.712Z,46.13
2016-04-04T02:57:53.716Z,46.03
2016-04-04T02:58:53.733Z,45.94
2016-04-04T02:59:53.736Z,45.84
2016-04-04T03:00:53.738Z,46.03
2016-04-04T03:01:53.789Z,46.03
2016-04-04T03:02:53.760Z,45.94
2016-04-04T03:03:53.762Z,45.94
2016-04-04T03:04:53.782Z,46.03
2016-04-04T03:05:53.784Z,46.13
2016-04-04T03:06:53.787Z,46.03
2016-04-04T03:07:53.829Z,45.94
2016-04-04T03:08:53.800Z,46.03
2016-04-04T03:09:53.803Z,46.03
2016-04-04T03:10:53.821Z,46.03
2016-04-04T03:11:53.824Z,45.94
2016-04-04T03:12:53.827Z,46.13
2016-04-04T03:13:53.829Z,46.13
2016-04-04T03:14:53.832Z,46.13
2016-04-04T03:15:53.851Z,45.94
2016-04-04T03:16:53.853Z,46.13
2016-04-04T03:17:53.856Z,45.94
2016-04-04T03:18:53.859Z,45.94
2016-04-04T03:19:54.034Z,45.94
2016-04-04T03:20:53.879Z,46.03
2016-04-04T03:21:53.882Z,46.03
2016-04-04T03:22:53.901Z,46.03
2016-04-04T03:23:53.903Z,45.94
2016-04-04T03:24:53.906Z,46.03
2016-04-04T03:25:53.909Z,46.03
2016-04-04T03:26:53.927Z,45.94
2016-04-04T03:27:53.930Z,45.84
2016-04-04T03:28:53.933Z,45.94
2016-04-04T03:29:53.950Z,45.94
2016-04-04T03:30:53.953Z,46.03
2016-04-04T03:31:53.956Z,46.03
2016-04-04T03:32:53.958Z,46.03
2016-04-04T03:33:53.977Z,46.13
2016-04-04T03:34:53.980Z,46.03
2016-04-04T03:35:53.983Z,46.13
2016-04-04T03:36:53.985Z,46.13
2016-04-04T03:37:54.003Z,46.03
2016-04-04T03:38:54.006Z,45.94
2016-04-04T03:39:54.009Z,46.13
2016-04-04T03:40:54.027Z,46.03
2016-04-04T03:41:54.029Z,45.94
2016-04-04T03:42:54.033Z,46.03
2016-04-04T03:43:54.035Z,45.94
2016-04-04T03:44:54.037Z,45.94
2016-04-04T03:45:54.041Z,45.94
2016-04-04T03:46:54.060Z,46.13
2016-04-04T03:47:54.062Z,45.94
2016-04-04T03:48:54.079Z,46.13
2016-04-04T03:49:54.083Z,45.94
2016-04-04T03:50:54.085Z,45.94
2016-04-04T03:51:54.103Z,46.03
2016-04-04T03:52:54.106Z,46.03
2016-04-04T03:53:54.125Z,46.23
2016-04-04T03:54:54.112Z,46.03
2016-04-04T03:55:54.114Z,46.03
2016-04-04T03:56:54.117Z,46.13
2016-04-04T03:57:54.167Z,45.94
2016-04-04T03:58:54.154Z,46.13
2016-04-04T03:59:54.156Z,45.94
2016-04-04T04:00:54.159Z,45.94
2016-04-04T04:01:54.162Z,45.94
2016-04-04T04:02:54.180Z,46.03
2016-04-04T04:03:54.183Z,45.94
2016-04-04T04:04:54.186Z,46.03
2016-04-04T04:05:54.220Z,46.13
2016-04-04T04:06:54.192Z,45.92
2016-04-04T04:07:54.210Z,46.03
2016-04-04T04:08:54.212Z,45.94
2016-04-04T04:09:54.231Z,46.13
2016-04-04T04:10:54.234Z,46.03
2016-04-04T04:11:54.220Z,46.01
2016-04-04T04:12:54.255Z,46.13
2016-04-04T04:13:54.242Z,46.03
2016-04-04T04:14:54.245Z,45.94
2016-04-04T04:15:54.247Z,46.11
2016-04-04T04:16:54.281Z,46.03
2016-04-04T04:17:54.284Z,45.94
2016-04-04T04:18:54.286Z,46.03
2016-04-04T04:19:54.289Z,46.03
2016-04-04T04:20:54.291Z,45.94
2016-04-04T04:21:54.295Z,45.92
2016-04-04T04:22:54.313Z,46.03
2016-04-04T04:23:54.315Z,46.11
2016-04-04T04:24:54.319Z,46.01
2016-04-04T04:25:54.337Z,46.11
2016-04-04T04:26:54.340Z,46.13
2016-04-04T04:27:54.342Z,46.01
2016-04-04T04:28:54.346Z,46.13
2016-04-04T04:29:54.348Z,45.92
2016-04-04T04:30:54.350Z,45.94
2016-04-04T04:31:54.384Z,46.23
2016-04-04T04:32:54.370Z,46.11
2016-04-04T04:33:54.374Z,46.03
2016-04-04T04:34:54.392Z,46.2
2016-04-04T04:35:54.395Z,46.13
2016-04-04T04:36:54.398Z,46.23
2016-04-04T04:37:54.415Z,46.01
2016-04-04T04:38:54.418Z,46.03
2016-04-04T04:39:54.420Z,46.01
2016-04-04T04:40:54.424Z,45.94
2016-04-04T04:41:54.442Z,46.11
2016-04-04T04:42:54.445Z,45.92
2016-04-04T04:43:54.463Z,46.01
2016-04-04T04:44:54.466Z,46.03
2016-04-04T04:45:54.469Z,46.03
2016-04-04T04:46:54.471Z,46.13
2016-04-04T04:47:54.489Z,46.03
2016-04-04T04:48:54.492Z,46.23
2016-04-04T04:49:54.480Z,45.92
2016-04-04T04:50:54.497Z,46.01
2016-04-04T04:51:54.500Z,45.94
2016-04-04T04:52:54.503Z,46.03
2016-04-04T04:53:54.521Z,46.13
2016-04-04T04:54:54.524Z,45.94
2016-04-04T04:55:54.526Z,45.94
2016-04-04T04:56:54.529Z,46.11
2016-04-04T04:57:54.548Z,46.03
2016-04-04T04:58:54.551Z,46.03
2016-04-04T04:59:54.568Z,46.11
2016-04-04T05:00:54.571Z,46.01
2016-04-04T05:01:54.574Z,46.03
2016-04-04T05:02:54.576Z,46.2
2016-04-04T05:03:54.580Z,46.23
2016-04-04T05:04:54.598Z,45.92
2016-04-04T05:05:54.585Z,46.01
2016-04-04T05:06:54.603Z,46.01
2016-04-04T05:07:54.606Z,45.92
2016-04-04T05:08:54.624Z,46.13
2016-04-04T05:09:54.626Z,45.92
2016-04-04T05:10:54.629Z,46.01
2016-04-04T05:11:54.647Z,46.01
2016-04-04T05:12:54.651Z,46.13
2016-04-04T05:13:54.653Z,46.03
2016-04-04T05:14:54.655Z,46.13
2016-04-04T05:15:54.659Z,46.13
2016-04-04T05:16:54.662Z,46.11
2016-04-04T05:17:54.727Z,46.01
2016-04-04T05:18:54.697Z,46.2
2016-04-04T05:19:54.701Z,46.03
2016-04-04T05:20:54.703Z,46.01
2016-04-04T05:21:54.705Z,46.01
2016-04-04T05:22:54.708Z,46.2
2016-04-04T05:23:54.620Z,46.23
2016-04-04T05:24:54.871Z,45.94
2016-04-04T05:25:54.732Z,45.92
2016-04-04T05:26:54.755Z,46.03
2016-04-04T05:27:54.816Z,46.03
2016-04-04T05:28:54.756Z,46.23
2016-04-04T05:29:54.759Z,46.03
2016-04-04T05:30:54.777Z,46.11
2016-04-04T05:31:54.780Z,46.23
2016-04-04T05:32:54.782Z,46.13
2016-04-04T05:33:54.785Z,46.23
2016-04-04T05:34:55.100Z,46.3
2016-04-04T05:35:54.806Z,46.01
2016-04-04T05:36:54.809Z,45.94
2016-04-04T05:37:54.812Z,46.01
2016-04-04T05:38:54.830Z,46.03
2016-04-04T05:39:54.832Z,46.23
2016-04-04T05:40:54.835Z,46.03
2016-04-04T05:41:54.837Z,46.03
2016-04-04T05:42:54.856Z,46.03
2016-04-04T05:43:54.859Z,45.94
2016-04-04T05:44:54.892Z,46.13
2016-04-04T05:45:54.865Z,45.94
2016-04-04T05:46:54.883Z,46.03
2016-04-04T05:47:54.886Z,45.94
2016-04-04T05:48:54.889Z,46.03
2016-04-04T05:49:54.891Z,45.94
2016-04-04T05:50:54.909Z,45.84
2016-04-04T05:51:54.911Z,46.03
2016-04-04T05:52:54.930Z,45.94
2016-04-04T05:53:54.916Z,45.94
2016-04-04T05:54:54.920Z,45.94
2016-04-04T05:55:54.938Z,46.03
2016-04-04T05:56:54.956Z,46.03
2016-04-04T05:57:54.960Z,45.94
2016-04-04T05:58:54.963Z,46.03
2016-04-04T05:59:54.965Z,45.94
2016-04-04T06:00:54.967Z,45.94
2016-04-04T06:01:54.985Z,46.03
2016-04-04T06:02:54.988Z,45.94
2016-04-04T06:03:54.990Z,45.94
2016-04-04T06:04:54.993Z,45.84
2016-04-04T06:05:55.012Z,45.84
2016-04-04T06:06:55.015Z,45.84
2016-04-04T06:07:55.048Z,45.84
2016-04-04T06:08:55.020Z,45.84
2016-04-04T06:09:55.023Z,45.84
2016-04-04T06:10:55.040Z,45.75
2016-04-04T06:11:55.043Z,45.94
2016-04-04T06:12:55.046Z,45.94
2016-04-04T06:13:55.064Z,45.94
2016-04-04T06:14:55.067Z,45.84
2016-04-04T06:15:55.070Z,46.03
2016-04-04T06:16:55.072Z,71.51
2016-04-04T06:17:55.091Z,55.4
2016-04-04T06:18:55.094Z,60.64
2016-04-04T06:19:55.097Z,50.89
2016-04-04T06:20:55.099Z,48.47
2016-04-04T06:21:55.117Z,48.66
2016-04-04T06:22:55.120Z,48.76
2016-04-04T06:23:55.122Z,49.05
2016-04-04T06:24:55.125Z,49.34
2016-04-04T06:25:55.143Z,49.82
2016-04-04T06:26:55.146Z,49.73
2016-04-04T06:27:55.149Z,50.11
2016-04-04T06:28:55.167Z,50.59
2016-04-04T06:29:55.171Z,50.5
2016-04-04T06:30:55.173Z,50.5
2016-04-04T06:31:55.176Z,50.69
2016-04-04T06:32:55.193Z,50.69
2016-04-04T06:33:55.197Z,50.79
2016-04-04T06:34:55.230Z,50.69
2016-04-04T06:35:55.217Z,50.69
2016-04-04T06:36:55.205Z,50.59
2016-04-04T06:37:55.223Z,50.69
2016-04-04T06:38:55.226Z,50.89
2016-04-04T06:39:55.228Z,50.69
2016-04-04T06:40:55.231Z,50.5
2016-04-04T06:41:55.249Z,50.31
2016-04-04T06:42:55.251Z,50.5
2016-04-04T06:43:55.254Z,50.59
2016-04-04T06:44:55.273Z,50.21
2016-04-04T06:45:55.260Z,50.31
2016-04-04T06:46:55.278Z,50.11
2016-04-04T06:47:55.281Z,50.21
2016-04-04T06:48:55.300Z,50.01
2016-04-04T06:49:55.333Z,50.11
2016-04-04T06:50:55.320Z,50.11
2016-04-04T06:51:55.307Z,50.11
2016-04-04T06:52:55.310Z,49.92
2016-04-04T06:53:55.328Z,49.73
2016-04-04T06:54:55.331Z,49.82
2016-04-04T06:55:55.333Z,49.92
2016-04-04T06:56:55.352Z,49.73
2016-04-04T06:57:55.355Z,49.73
2016-04-04T06:58:55.357Z,49.73
2016-04-04T06:59:55.360Z,49.73
2016-04-04T07:00:55.368Z,49.63
2016-04-04T07:01:55.386Z,49.63
2016-04-04T07:02:55.388Z,49.73
2016-04-04T07:03:55.391Z,49.7
2016-04-04T07:04:55.393Z,49.63
2016-04-04T07:05:55.413Z,49.63
2016-04-04T07:06:55.415Z,49.82
2016-04-04T07:07:55.418Z,49.34
2016-04-04T07:08:55.436Z,49.15
2016-04-04T07:09:55.454Z,49.05
2016-04-04T07:10:55.456Z,49.24
2016-04-04T07:11:55.444Z,49.24
2016-04-04T07:12:55.462Z,48.95
2016-04-04T07:13:55.464Z,49.05
2016-04-04T07:14:55.468Z,48.93
2016-04-04T07:15:55.470Z,48.93
2016-04-04T07:16:55.488Z,49.02
2016-04-04T07:17:55.491Z,49.12
2016-04-04T07:18:55.494Z,49.6
2016-04-04T07:19:55.559Z,49.6
2016-04-04T07:20:55.515Z,49.51
2016-04-04T07:21:55.519Z,49.51
2016-04-04T07:22:55.536Z,50.38
2016-04-04T07:23:55.539Z,50.93
2016-04-04T07:24:55.526Z,50.71
2016-04-04T07:25:55.544Z,50.23
2016-04-04T07:26:55.547Z,50.84
2016-04-04T07:27:55.410Z,51.22
2016-04-04T07:28:55.552Z,51.48
2016-04-04T07:29:55.570Z,51.29
2016-04-04T07:30:55.574Z,51
2016-04-04T07:31:55.577Z,50.45
2016-04-04T07:32:55.594Z,50.35
2016-04-04T07:33:55.596Z,50.06
2016-04-04T07:34:55.600Z,50.09
2016-04-04T07:35:55.601Z,50.18
2016-04-04T07:36:55.605Z,50.38
2016-04-04T07:37:55.639Z,50.28
2016-04-04T07:38:55.642Z,49.99
2016-04-04T07:39:55.629Z,49.99
2016-04-04T07:40:55.648Z,50.28
2016-04-04T07:41:55.650Z,50.28
2016-04-04T07:42:55.652Z,49.99
2016-04-04T07:43:55.656Z,49.9
2016-04-04T07:44:55.674Z,50.18
2016-04-04T07:45:55.676Z,50.09
2016-04-04T07:46:55.678Z,49.73
2016-04-04T07:47:55.697Z,49.73
2016-04-04T07:48:55.700Z,50.01
2016-04-04T07:49:55.703Z,49.73
2016-04-04T07:50:55.705Z,50.31
2016-04-04T07:51:55.708Z,49.92
2016-04-04T07:52:55.710Z,50.11
2016-04-04T07:53:55.730Z,49.82
2016-04-04T07:54:55.732Z,49.92
2016-04-04T07:55:55.765Z,49.73
2016-04-04T07:56:55.753Z,49.73
2016-04-04T07:57:55.755Z,49.82
2016-04-04T07:58:55.758Z,49.82
2016-04-04T07:59:55.760Z,49.82
2016-04-04T08:00:55.779Z,49.73
2016-04-04T08:01:55.781Z,49.63
2016-04-04T08:02:55.785Z,49.05
2016-04-04T08:03:55.802Z,49.73
2016-04-04T08:04:55.805Z,49.37
2016-04-04T08:05:55.808Z,48.95
2016-04-04T08:06:55.827Z,49.17
2016-04-04T08:07:55.813Z,49.07
2016-04-04T08:08:55.847Z,49.75
2016-04-04T08:09:55.834Z,49.75
2016-04-04T08:10:55.837Z,49.37
2016-04-04T08:11:55.871Z,49.07
2016-04-04T08:12:55.858Z,49.07
2016-04-04T08:13:55.861Z,49.07
2016-04-04T08:14:55.878Z,49.07
2016-04-04T08:15:55.881Z,48.97
2016-04-04T08:16:55.884Z,48.97
2016-04-04T08:17:55.903Z,49.07
2016-04-04T08:18:55.906Z,49.07
2016-04-04T08:19:55.908Z,48.97
2016-04-04T08:20:55.927Z,48.79
2016-04-04T08:21:55.930Z,49.07
2016-04-04T08:22:55.932Z,49.07
2016-04-04T08:23:55.935Z,49.65
2016-04-04T08:24:55.953Z,49.65
2016-04-04T08:25:55.956Z,49
2016-04-04T08:26:55.974Z,49.1
2016-04-04T08:27:55.977Z,49
2016-04-04T08:28:55.979Z,49
2016-04-04T08:29:55.983Z,49
2016-04-04T08:30:56.000Z,49
2016-04-04T08:31:56.003Z,49.87
2016-04-04T08:32:56.005Z,48.71
2016-04-04T08:33:56.014Z,49.1
2016-04-04T08:34:56.005Z,48.81
2016-04-04T08:35:55.996Z,48.81
2016-04-04T08:36:55.987Z,49.68
2016-04-04T08:37:55.977Z,49.1
2016-04-04T08:38:55.991Z,49
2016-04-04T08:39:56.004Z,49
2016-04-04T08:40:56.002Z,48.9
2016-04-04T08:41:56.001Z,48.71
2016-04-04T08:42:55.999Z,49.1
2016-04-04T08:43:56.016Z,49.1
2016-04-04T08:44:56.017Z,49
2016-04-04T08:45:56.035Z,48.9
2016-04-04T08:46:56.020Z,49.02
2016-04-04T08:47:56.036Z,49.1
2016-04-04T08:48:56.039Z,48.83
2016-04-04T08:49:56.055Z,48.71
2016-04-04T08:50:56.057Z,49
2016-04-04T08:51:56.059Z,48.83
2016-04-04T08:52:56.061Z,48.83
2016-04-04T08:53:56.079Z,48.93
2016-04-04T08:54:56.082Z,48.83
2016-04-04T08:55:56.084Z,48.64
2016-04-04T08:56:56.101Z,48.74
2016-04-04T08:57:56.103Z,48.64
2016-04-04T08:58:56.122Z,48.54
2016-04-04T08:59:56.125Z,48.64
2016-04-04T09:00:56.128Z,48.64
2016-04-04T09:01:56.130Z,48.74
2016-04-04T09:02:56.148Z,48.44
2016-04-04T09:03:56.152Z,48.44
2016-04-04T09:04:56.154Z,48.44
2016-04-04T09:05:56.157Z,48.35
2016-04-04T09:06:56.174Z,48.06
2016-04-04T09:07:56.177Z,48.16
2016-04-04T09:08:56.196Z,47.86
2016-04-04T09:09:56.199Z,48.06
2016-04-04T09:10:56.201Z,47.58
2016-04-04T09:11:56.204Z,47.58
2016-04-04T09:12:56.206Z,47.48
2016-04-04T09:13:56.225Z,47.48
2016-04-04T09:14:56.243Z,47.89
2016-04-04T09:15:56.246Z,48.08
2016-04-04T09:16:56.248Z,47.6
2016-04-04T09:17:56.251Z,47.99
2016-04-04T09:18:56.285Z,47.79
2016-04-04T09:19:56.303Z,47.6
2016-04-04T09:20:56.290Z,47.89
2016-04-04T09:21:56.293Z,47.5
2016-04-04T09:22:56.311Z,47.6
2016-04-04T09:23:56.298Z,47.6
2016-04-04T09:24:56.317Z,47.6
2016-04-04T09:25:56.320Z,47.69
2016-04-04T09:26:56.338Z,47.5
2016-04-04T09:27:56.341Z,47.31
2016-04-04T09:28:56.359Z,47.6
2016-04-04T09:29:56.361Z,47.6
2016-04-04T09:30:56.364Z,47.41
2016-04-04T09:31:56.383Z,47.5
2016-04-04T09:32:56.385Z,47.6
2016-04-04T09:33:56.388Z,47.6
2016-04-04T09:34:56.391Z,47.69
2016-04-04T09:35:56.409Z,47.31
2016-04-04T09:36:56.412Z,47.5
2016-04-04T09:37:56.415Z,47.21
2016-04-04T09:38:56.433Z,47.43
2016-04-04T09:39:56.435Z,47.31
2016-04-04T09:40:56.438Z,47.14
2016-04-04T09:41:56.471Z,47.52
2016-04-04T09:42:56.474Z,46.94
2016-04-04T09:43:56.462Z,46.94
2016-04-04T09:44:56.496Z,46.84
2016-04-04T09:45:56.483Z,46.94
2016-04-04T09:46:56.501Z,46.66
2016-04-04T09:47:56.487Z,46.66
2016-04-04T09:48:56.507Z,46.75
2016-04-04T09:49:56.541Z,46.66
2016-04-04T09:50:56.528Z,46.66
2016-04-04T09:51:56.545Z,46.75
2016-04-04T09:52:56.564Z,46.56
2016-04-04T09:53:56.566Z,46.46
2016-04-04T09:54:56.569Z,46.56
2016-04-04T09:55:56.573Z,46.66
2016-04-04T09:56:56.591Z,46.66
2016-04-04T09:57:56.594Z,46.48
2016-04-04T09:58:56.596Z,46.66
2016-04-04T09:59:56.599Z,46.58
2016-04-04T10:00:56.617Z,46.77
2016-04-04T10:01:56.620Z,46.36
2016-04-04T10:02:56.623Z,46.29
2016-04-04T10:03:56.641Z,46.48
2016-04-04T10:04:56.643Z,46.29
2016-04-04T10:05:56.661Z,46.39
2016-04-04T10:06:56.664Z,46.29
2016-04-04T10:07:56.667Z,46.09
2016-04-04T10:08:56.685Z,46.19
2016-04-04T10:09:56.693Z,46.29
2016-04-04T10:10:56.711Z,46.48
2016-04-04T10:11:56.715Z,46.39
2016-04-04T10:12:56.732Z,46.48
2016-04-04T10:13:56.720Z,46.19
2016-04-04T10:14:56.737Z,46.09
2016-04-04T10:15:56.740Z,46.09
2016-04-04T10:16:56.759Z,46.09
2016-04-04T10:17:56.762Z,46
2016-04-04T10:18:56.764Z,46
2016-04-04T10:19:56.767Z,45.9
2016-04-04T10:20:56.784Z,45.61
2016-04-04T10:21:56.787Z,45.71
2016-04-04T10:22:56.806Z,45.61
2016-04-04T10:23:56.809Z,45.71
2016-04-04T10:24:56.811Z,45.81
2016-04-04T10:25:56.814Z,45.81
2016-04-04T10:26:56.833Z,46.09
2016-04-04T10:27:56.836Z,46.09
2016-04-04T10:28:56.853Z,46.39
2016-04-04T10:29:56.856Z,46.29
2016-04-04T10:30:56.874Z,46.39
2016-04-04T10:31:56.877Z,46.29
2016-04-04T10:32:56.879Z,46.39
2016-04-04T10:33:56.883Z,46.48
2016-04-04T10:34:56.886Z,46.48
2016-04-04T10:35:56.919Z,46.48
2016-04-04T10:36:56.921Z,46.29
2016-04-04T10:37:56.768Z,46.29
2016-04-04T10:38:56.926Z,46.19
2016-04-04T10:39:56.929Z,45.9
2016-04-04T10:40:56.933Z,46.19
2016-04-04T10:41:56.951Z,46.19
2016-04-04T10:42:56.954Z,46.09
2016-04-04T10:43:56.971Z,46
2016-04-04T10:44:56.990Z,46.09
2016-04-04T10:45:56.977Z,46.09
2016-04-04T10:46:56.996Z,46.09
2016-04-04T10:47:56.998Z,46.39
2016-04-04T10:48:57.001Z,46.39
2016-04-04T10:49:57.019Z,46.39
2016-04-04T10:50:57.022Z,46.29
2016-04-04T10:51:57.025Z,46.09
2016-04-04T10:52:57.043Z,46
2016-04-04T10:53:57.061Z,46
2016-04-04T10:54:57.064Z,46.09
2016-04-04T10:55:57.066Z,46.19
2016-04-04T10:56:57.069Z,46.09
2016-04-04T10:57:57.072Z,46
2016-04-04T10:58:57.091Z,46
2016-04-04T10:59:57.093Z,46
2016-04-04T11:00:57.096Z,46
2016-04-04T11:01:57.114Z,46
2016-04-04T11:02:57.117Z,46.09
2016-04-04T11:03:57.119Z,45.81
2016-04-04T11:04:57.122Z,45.9
2016-04-04T11:05:57.155Z,45.81
2016-04-04T11:06:57.144Z,45.81
2016-04-04T11:07:57.161Z,45.73
2016-04-04T11:08:57.174Z,45.64
2016-04-04T11:09:57.020Z,45.64
2016-04-04T11:10:57.179Z,45.73
2016-04-04T11:11:57.181Z,45.92
2016-04-04T11:12:57.184Z,45.64
2016-04-04T11:13:57.203Z,45.73
2016-04-04T11:14:57.206Z,45.73
2016-04-04T11:15:57.208Z,45.73
2016-04-04T11:16:57.226Z,45.73
2016-04-04T11:17:57.245Z,45.64
2016-04-04T11:18:57.248Z,45.73
2016-04-04T11:19:57.250Z,45.73
2016-04-04T11:20:57.253Z,45.73
2016-04-04T11:21:57.272Z,45.64
2016-04-04T11:22:57.275Z,45.73
2016-04-04T11:23:57.277Z,45.54
2016-04-04T11:24:57.295Z,45.27
2016-04-04T11:25:57.298Z,45.27
2016-04-04T11:26:57.332Z,45.07
2016-04-04T11:27:57.319Z,45.17
2016-04-04T11:28:57.322Z,45.17
2016-04-04T11:29:57.324Z,44.98
2016-04-04T11:30:57.343Z,44.88
2016-04-04T11:31:57.360Z,44.98
2016-04-04T11:32:57.363Z,44.49
2016-04-04T11:33:57.568Z,44.49
2016-04-04T11:34:57.368Z,44.68
2016-04-04T11:35:57.387Z,44.49
2016-04-04T11:36:57.389Z,44.59
2016-04-04T11:37:57.392Z,44.49
2016-04-04T11:38:57.401Z,44.4
2016-04-04T11:39:57.418Z,44.3
2016-04-04T11:40:57.421Z,44.3
2016-04-04T11:41:57.626Z,44.01
2016-04-04T11:42:57.426Z,44.4
2016-04-04T11:43:57.445Z,44.01
2016-04-04T11:44:57.447Z,43.91
2016-04-04T11:45:57.466Z,44.59
2016-04-04T11:46:57.468Z,44.1
2016-04-04T11:47:57.471Z,44.49
2016-04-04T11:48:57.489Z,44.01
2016-04-04T11:49:57.522Z,44.2
2016-04-04T11:50:57.494Z,43.91
2016-04-04T11:51:57.513Z,44.01
2016-04-04T11:52:57.531Z,44.1
2016-04-04T11:53:57.533Z,44.3
2016-04-04T11:54:57.537Z,44.1
2016-04-04T11:55:57.539Z,44.3
2016-04-04T11:56:57.558Z,43.91
2016-04-04T11:57:57.561Z,44.1
2016-04-04T11:58:57.579Z,44.23
2016-04-04T11:59:57.582Z,44.1
2016-04-04T12:00:57.584Z,44.4
2016-04-04T12:01:57.602Z,44.4
2016-04-04T12:02:57.605Z,44.49
2016-04-04T12:03:57.623Z,44.4
2016-04-04T12:04:57.610Z,44.4
2016-04-04T12:05:57.612Z,44.3
2016-04-04T12:06:57.647Z,44.2
2016-04-04T12:07:57.650Z,44.1
2016-04-04T12:08:57.652Z,44.3
2016-04-04T12:09:57.671Z,44.3
2016-04-04T12:10:57.673Z,44.3
2016-04-04T12:11:57.676Z,44.49
2016-04-04T12:12:57.679Z,44.4
2016-04-04T12:13:57.698Z,44.2
2016-04-04T12:14:57.700Z,44.4
2016-04-04T12:15:57.703Z,44.68
2016-04-04T12:16:57.720Z,44.4
2016-04-04T12:17:57.723Z,44.59
2016-04-04T12:18:57.758Z,44.2
2016-04-04T12:19:57.744Z,44.3
2016-04-04T12:20:57.748Z,44.01
2016-04-04T12:21:57.594Z,44.2
2016-04-04T12:22:57.769Z,44.1
2016-04-04T12:23:57.772Z,44.1
2016-04-04T12:24:57.789Z,44.3
2016-04-04T12:25:57.792Z,44.1
2016-04-04T12:26:57.811Z,44.1
2016-04-04T12:27:57.813Z,44.3
2016-04-04T12:28:57.816Z,44.1
2016-04-04T12:29:57.818Z,44.1
2016-04-04T12:30:57.837Z,43.82
2016-04-04T12:31:57.840Z,43.62
2016-04-04T12:32:57.842Z,43.82
2016-04-04T12:33:57.860Z,43.52
2016-04-04T12:34:57.862Z,43.45
2016-04-04T12:35:57.865Z,43.26
2016-04-04T12:36:57.868Z,43.26
2016-04-04T12:37:57.887Z,42.96
2016-04-04T12:38:57.889Z,43.06
2016-04-04T12:39:57.908Z,42.57
2016-04-04T12:40:57.910Z,43.35
2016-04-04T12:41:57.913Z,43.62
2016-04-04T12:42:57.932Z,43.52
2016-04-04T12:43:57.950Z,43.23
2016-04-04T12:44:57.937Z,42.94
2016-04-04T12:45:57.955Z,42.92
2016-04-04T12:46:57.958Z,42.65
2016-04-04T12:47:57.976Z,42.55
2016-04-04T12:48:57.978Z,42.55
2016-04-04T12:49:57.950Z,43.33
2016-04-04T12:50:57.984Z,44.01
2016-04-04T12:51:58.002Z,43.52
2016-04-04T12:52:58.005Z,43.04
2016-04-04T12:53:58.007Z,42.55
2016-04-04T12:54:58.026Z,42.55
2016-04-04T12:55:58.029Z,43.43
2016-04-04T12:56:58.031Z,43.5
2016-04-04T12:57:58.035Z,43.89